sensor_id;sensor_type;location;lat;lon;timestamp;temperature;humidity
2106;DHT22;1059;52.548;13.408;2022-11-15T00:01:18;8.00;99.90
2106;DHT22;1059;52.548;13.408;2022-11-15T00:03:45;7.90;99.90
2106;DHT22;1059;52.548;13.408;2022-11-15T00:06:12;7.80;99.90
2106;DHT22;1059;52.548;13.408;2022-11-15T00:08:39;7.80;99.90
2106;DHT22;1059;52.548;13.408;2022-11-15T00:11:08;7.80;99.90
2106;DHT22;1059;52.548;13.408;2022-11-15T00:13:36;7.70;99.90
2106;DHT22;1059;52.548;13.408;2022-11-15T00:16:03;7.70;99.90
2106;DHT22;1059;52.548;13.408;2022-11-15T00:18:32;7.60;99.90
2106;DHT22;1059;52.548;13.408;2022-11-15T00:21:03;7.60;99.90
2106;DHT22;1059;52.548;13.408;2022-11-15T00:23:30;7.60;99.90
2106;DHT22;1059;52.548;13.408;2022-11-15T00:25:58;7.50;99.90
2106;DHT22;1059;52.548;13.408;2022-11-15T00:28:25;7.50;99.90
2106;DHT22;1059;52.548;13.408;2022-11-15T00:30:52;7.50;99.90
2106;DHT22;1059;52.548;13.408;2022-11-15T00:33:19;7.50;99.90
2106;DHT22;1059;52.548;13.408;2022-11-15T00:35:48;7.50;99.90
2106;DHT22;1059;52.548;13.408;2022-11-15T00:38:15;7.50;99.90
2106;DHT22;1059;52.548;13.408;2022-11-15T00:40:41;7.40;99.90
2106;DHT22;1059;52.548;13.408;2022-11-15T00:43:08;7.40;99.90
2106;DHT22;1059;52.548;13.408;2022-11-15T00:45:35;7.30;99.90
2106;DHT22;1059;52.548;13.408;2022-11-15T00:48:02;7.30;99.90
2106;DHT22;1059;52.548;13.408;2022-11-15T00:50:29;7.30;99.90
2106;DHT22;1059;52.548;13.408;2022-11-15T00:52:57;7.20;99.90
2106;DHT22;1059;52.548;13.408;2022-11-15T00:55:24;7.20;99.90
2106;DHT22;1059;52.548;13.408;2022-11-15T00:57:51;7.20;99.90
2106;DHT22;1059;52.548;13.408;2022-11-15T01:00:18;7.10;99.90
2106;DHT22;1059;52.548;13.408;2022-11-15T01:02:45;7.10;99.90
2106;DHT22;1059;52.548;13.408;2022-11-15T01:05:12;7.10;99.90
2106;DHT22;1059;52.548;13.408;2022-11-15T01:07:39;7.10;99.90
2106;DHT22;1059;52.548;13.408;2022-11-15T01:10:08;7.10;99.90
2106;DHT22;1059;52.548;13.408;2022-11-15T01:12:35;7.10;99.90
2106;DHT22;1059;52.548;13.408;2022-11-15T01:15:03;7.10;99.90
2106;DHT22;1059;52.548;13.408;2022-11-15T01:17:30;7.10;99.90
2106;DHT22;1059;52.548;13.408;2022-11-15T01:19:57;7.10;99.90
2106;DHT22;1059;52.548;13.408;2022-11-15T01:22:24;7.00;99.90
2106;DHT22;1059;52.548;13.408;2022-11-15T01:24:51;7.00;99.90
2106;DHT22;1059;52.548;13.408;2022-11-15T01:27:20;7.00;99.90
2106;DHT22;1059;52.548;13.408;2022-11-15T01:29:47;7.00;99.90
2106;DHT22;1059;52.548;13.408;2022-11-15T01:32:13;7.00;99.90
2106;DHT22;1059;52.548;13.408;2022-11-15T01:34:40;7.00;99.90
2106;DHT22;1059;52.548;13.408;2022-11-15T01:37:07;6.90;99.90
2106;DHT22;1059;52.548;13.408;2022-11-15T01:39:34;6.90;99.90
2106;DHT22;1059;52.548;13.408;2022-11-15T01:42:01;6.90;99.90
2106;DHT22;1059;52.548;13.408;2022-11-15T01:44:39;6.90;99.90
2106;DHT22;1059;52.548;13.408;2022-11-15T01:47:09;6.90;99.90
2106;DHT22;1059;52.548;13.408;2022-11-15T01:49:40;6.80;99.90
2106;DHT22;1059;52.548;13.408;2022-11-15T01:52:12;6.80;99.90
2106;DHT22;1059;52.548;13.408;2022-11-15T01:54:40;6.80;99.90
2106;DHT22;1059;52.548;13.408;2022-11-15T01:57:08;6.80;99.90
2106;DHT22;1059;52.548;13.408;2022-11-15T01:59:38;6.80;99.90
2106;DHT22;1059;52.548;13.408;2022-11-15T02:02:06;6.80;99.90
2106;DHT22;1059;52.548;13.408;2022-11-15T02:04:37;6.90;99.90
2106;DHT22;1059;52.548;13.408;2022-11-15T02:07:07;6.80;99.90
2106;DHT22;1059;52.548;13.408;2022-11-15T02:09:36;6.80;99.90
2106;DHT22;1059;52.548;13.408;2022-11-15T02:12:04;6.80;99.90
2106;DHT22;1059;52.548;13.408;2022-11-15T02:14:32;6.80;99.90
2106;DHT22;1059;52.548;13.408;2022-11-15T02:17:13;6.80;99.90
2106;DHT22;1059;52.548;13.408;2022-11-15T02:22:45;6.70;99.90
2106;DHT22;1059;52.548;13.408;2022-11-15T02:25:34;6.70;99.90
2106;DHT22;1059;52.548;13.408;2022-11-15T02:28:21;6.70;99.90
2106;DHT22;1059;52.548;13.408;2022-11-15T02:30:59;6.70;99.90
2106;DHT22;1059;52.548;13.408;2022-11-15T02:33:35;6.70;99.90
2106;DHT22;1059;52.548;13.408;2022-11-15T02:36:06;6.70;99.90
2106;DHT22;1059;52.548;13.408;2022-11-15T02:38:40;6.70;99.90
2106;DHT22;1059;52.548;13.408;2022-11-15T02:41:13;6.70;99.90
2106;DHT22;1059;52.548;13.408;2022-11-15T02:43:47;6.70;99.90
2106;DHT22;1059;52.548;13.408;2022-11-15T02:46:30;6.70;99.90
2106;DHT22;1059;52.548;13.408;2022-11-15T02:49:16;6.80;99.90
2106;DHT22;1059;52.548;13.408;2022-11-15T02:51:46;6.80;99.90
2106;DHT22;1059;52.548;13.408;2022-11-15T02:54:17;6.80;99.90
2106;DHT22;1059;52.548;13.408;2022-11-15T02:56:45;6.80;99.90
2106;DHT22;1059;52.548;13.408;2022-11-15T02:59:33;6.80;99.90
2106;DHT22;1059;52.548;13.408;2022-11-15T03:02:14;6.80;99.90
2106;DHT22;1059;52.548;13.408;2022-11-15T03:04:48;6.80;99.90
2106;DHT22;1059;52.548;13.408;2022-11-15T03:07:24;6.80;99.90
2106;DHT22;1059;52.548;13.408;2022-11-15T03:09:59;6.80;99.90
2106;DHT22;1059;52.548;13.408;2022-11-15T03:12:35;6.80;99.90
2106;DHT22;1059;52.548;13.408;2022-11-15T03:15:06;6.80;99.90
2106;DHT22;1059;52.548;13.408;2022-11-15T03:17:38;6.80;99.90
2106;DHT22;1059;52.548;13.408;2022-11-15T03:20:08;6.90;99.90
2106;DHT22;1059;52.548;13.408;2022-11-15T03:22:39;6.90;99.90
2106;DHT22;1059;52.548;13.408;2022-11-15T03:25:12;6.80;99.90
2106;DHT22;1059;52.548;13.408;2022-11-15T03:27:44;6.90;99.90
2106;DHT22;1059;52.548;13.408;2022-11-15T03:30:13;6.90;99.90
2106;DHT22;1059;52.548;13.408;2022-11-15T03:32:47;6.90;99.90
2106;DHT22;1059;52.548;13.408;2022-11-15T03:35:17;6.90;99.90
2106;DHT22;1059;52.548;13.408;2022-11-15T03:37:48;6.90;99.90
2106;DHT22;1059;52.548;13.408;2022-11-15T03:40:17;6.90;99.90
2106;DHT22;1059;52.548;13.408;2022-11-15T03:42:51;6.90;99.90
2106;DHT22;1059;52.548;13.408;2022-11-15T03:45:25;6.90;99.90
2106;DHT22;1059;52.548;13.408;2022-11-15T03:47:59;7.00;99.90
2106;DHT22;1059;52.548;13.408;2022-11-15T03:50:29;6.90;99.90
2106;DHT22;1059;52.548;13.408;2022-11-15T03:52:56;6.90;99.90
2106;DHT22;1059;52.548;13.408;2022-11-15T03:55:24;6.90;99.90
2106;DHT22;1059;52.548;13.408;2022-11-15T03:57:59;7.00;99.90
2106;DHT22;1059;52.548;13.408;2022-11-15T04:00:27;7.00;99.90
2106;DHT22;1059;52.548;13.408;2022-11-15T04:02:55;7.00;99.90
2106;DHT22;1059;52.548;13.408;2022-11-15T04:05:22;7.00;99.90
2106;DHT22;1059;52.548;13.408;2022-11-15T04:07:49;7.00;99.90
2106;DHT22;1059;52.548;13.408;2022-11-15T04:10:16;7.00;99.90
2106;DHT22;1059;52.548;13.408;2022-11-15T04:12:44;6.90;99.90
2106;DHT22;1059;52.548;13.408;2022-11-15T04:15:15;6.90;99.90
2106;DHT22;1059;52.548;13.408;2022-11-15T04:17:44;6.90;99.90
2106;DHT22;1059;52.548;13.408;2022-11-15T04:20:14;6.90;99.90
2106;DHT22;1059;52.548;13.408;2022-11-15T04:23:00;6.90;99.90
2106;DHT22;1059;52.548;13.408;2022-11-15T04:25:45;6.90;99.90
2106;DHT22;1059;52.548;13.408;2022-11-15T04:28:14;6.90;99.90
2106;DHT22;1059;52.548;13.408;2022-11-15T04:30:40;6.80;99.90
2106;DHT22;1059;52.548;13.408;2022-11-15T04:33:08;6.90;99.90
2106;DHT22;1059;52.548;13.408;2022-11-15T04:35:36;6.90;99.90
2106;DHT22;1059;52.548;13.408;2022-11-15T04:38:05;6.90;99.90
2106;DHT22;1059;52.548;13.408;2022-11-15T04:40:31;6.90;99.90
2106;DHT22;1059;52.548;13.408;2022-11-15T04:42:58;6.90;99.90
2106;DHT22;1059;52.548;13.408;2022-11-15T04:45:25;6.90;99.90
2106;DHT22;1059;52.548;13.408;2022-11-15T04:47:52;6.90;99.90
2106;DHT22;1059;52.548;13.408;2022-11-15T04:50:19;7.00;99.90
2106;DHT22;1059;52.548;13.408;2022-11-15T04:52:52;6.90;99.90
2106;DHT22;1059;52.548;13.408;2022-11-15T04:55:19;7.00;99.90
2106;DHT22;1059;52.548;13.408;2022-11-15T04:57:46;7.00;99.90
2106;DHT22;1059;52.548;13.408;2022-11-15T05:00:16;7.00;99.90
2106;DHT22;1059;52.548;13.408;2022-11-15T05:02:43;7.00;99.90
2106;DHT22;1059;52.548;13.408;2022-11-15T05:05:28;7.00;99.90
2106;DHT22;1059;52.548;13.408;2022-11-15T05:07:56;7.00;99.90
2106;DHT22;1059;52.548;13.408;2022-11-15T05:10:23;7.00;99.90
2106;DHT22;1059;52.548;13.408;2022-11-15T05:12:50;7.00;99.90
2106;DHT22;1059;52.548;13.408;2022-11-15T05:15:17;7.00;99.90
2106;DHT22;1059;52.548;13.408;2022-11-15T05:17:44;7.10;99.90
2106;DHT22;1059;52.548;13.408;2022-11-15T05:20:11;7.00;99.90
2106;DHT22;1059;52.548;13.408;2022-11-15T05:22:38;7.00;99.90
2106;DHT22;1059;52.548;13.408;2022-11-15T05:25:07;7.00;99.90
2106;DHT22;1059;52.548;13.408;2022-11-15T05:27:34;7.00;99.90
2106;DHT22;1059;52.548;13.408;2022-11-15T05:30:01;6.90;99.90
2106;DHT22;1059;52.548;13.408;2022-11-15T05:32:29;7.00;99.90
2106;DHT22;1059;52.548;13.408;2022-11-15T05:34:55;6.90;99.90
2106;DHT22;1059;52.548;13.408;2022-11-15T05:37:23;6.90;99.90
2106;DHT22;1059;52.548;13.408;2022-11-15T05:39:50;7.00;99.90
2106;DHT22;1059;52.548;13.408;2022-11-15T05:42:18;6.90;99.90
2106;DHT22;1059;52.548;13.408;2022-11-15T05:44:48;6.90;99.90
2106;DHT22;1059;52.548;13.408;2022-11-15T05:47:19;7.00;99.90
2106;DHT22;1059;52.548;13.408;2022-11-15T05:49:47;7.00;99.90
2106;DHT22;1059;52.548;13.408;2022-11-15T05:52:21;7.00;99.90
2106;DHT22;1059;52.548;13.408;2022-11-15T05:54:49;7.00;99.90
2106;DHT22;1059;52.548;13.408;2022-11-15T05:57:18;7.00;99.90
2106;DHT22;1059;52.548;13.408;2022-11-15T05:59:45;7.00;99.90
2106;DHT22;1059;52.548;13.408;2022-11-15T06:02:12;7.10;99.90
2106;DHT22;1059;52.548;13.408;2022-11-15T06:04:39;7.10;99.90
2106;DHT22;1059;52.548;13.408;2022-11-15T06:07:06;7.20;99.90
2106;DHT22;1059;52.548;13.408;2022-11-15T06:09:33;7.20;99.90
2106;DHT22;1059;52.548;13.408;2022-11-15T06:12:00;7.20;99.90
2106;DHT22;1059;52.548;13.408;2022-11-15T06:14:28;7.10;99.90
2106;DHT22;1059;52.548;13.408;2022-11-15T06:16:55;7.10;99.90
2106;DHT22;1059;52.548;13.408;2022-11-15T06:19:22;7.10;99.90
2106;DHT22;1059;52.548;13.408;2022-11-15T06:21:49;7.10;99.90
2106;DHT22;1059;52.548;13.408;2022-11-15T06:24:16;7.10;99.90
2106;DHT22;1059;52.548;13.408;2022-11-15T06:26:43;7.10;99.90
2106;DHT22;1059;52.548;13.408;2022-11-15T06:29:10;7.00;99.90
2106;DHT22;1059;52.548;13.408;2022-11-15T06:31:38;7.00;99.90
2106;DHT22;1059;52.548;13.408;2022-11-15T06:34:05;7.00;99.90
2106;DHT22;1059;52.548;13.408;2022-11-15T06:36:34;7.00;99.90
2106;DHT22;1059;52.548;13.408;2022-11-15T06:39:01;7.00;99.90
2106;DHT22;1059;52.548;13.408;2022-11-15T06:41:28;7.00;99.90
2106;DHT22;1059;52.548;13.408;2022-11-15T06:43:56;7.00;99.90
2106;DHT22;1059;52.548;13.408;2022-11-15T06:46:23;6.90;99.90
2106;DHT22;1059;52.548;13.408;2022-11-15T06:48:52;6.90;99.90
2106;DHT22;1059;52.548;13.408;2022-11-15T06:51:19;6.90;99.90
2106;DHT22;1059;52.548;13.408;2022-11-15T06:53:46;6.80;99.90
2106;DHT22;1059;52.548;13.408;2022-11-15T06:56:13;6.80;99.90
2106;DHT22;1059;52.548;13.408;2022-11-15T06:58:40;6.80;99.90
2106;DHT22;1059;52.548;13.408;2022-11-15T07:01:10;6.80;99.90
2106;DHT22;1059;52.548;13.408;2022-11-15T07:03:41;6.90;99.90
2106;DHT22;1059;52.548;13.408;2022-11-15T07:06:33;6.90;99.90
2106;DHT22;1059;52.548;13.408;2022-11-15T07:09:07;7.20;99.90
2106;DHT22;1059;52.548;13.408;2022-11-15T07:11:34;7.40;99.90
2106;DHT22;1059;52.548;13.408;2022-11-15T07:14:01;7.60;99.90
2106;DHT22;1059;52.548;13.408;2022-11-15T07:16:28;7.60;99.90
2106;DHT22;1059;52.548;13.408;2022-11-15T07:18:55;7.60;99.90
2106;DHT22;1059;52.548;13.408;2022-11-15T07:21:23;7.50;99.90
2106;DHT22;1059;52.548;13.408;2022-11-15T07:23:50;7.40;99.90
2106;DHT22;1059;52.548;13.408;2022-11-15T07:26:17;7.40;99.90
2106;DHT22;1059;52.548;13.408;2022-11-15T07:28:44;7.40;99.90
2106;DHT22;1059;52.548;13.408;2022-11-15T07:31:11;7.30;99.90
2106;DHT22;1059;52.548;13.408;2022-11-15T07:33:38;7.40;99.90
2106;DHT22;1059;52.548;13.408;2022-11-15T07:36:06;7.40;99.90
2106;DHT22;1059;52.548;13.408;2022-11-15T07:38:35;7.40;99.90
2106;DHT22;1059;52.548;13.408;2022-11-15T07:41:04;7.40;99.90
2106;DHT22;1059;52.548;13.408;2022-11-15T07:43:31;7.50;99.90
2106;DHT22;1059;52.548;13.408;2022-11-15T07:46:03;7.60;99.90
2106;DHT22;1059;52.548;13.408;2022-11-15T07:48:31;7.60;99.90
2106;DHT22;1059;52.548;13.408;2022-11-15T07:50:57;7.70;99.90
2106;DHT22;1059;52.548;13.408;2022-11-15T07:53:24;7.70;99.90
2106;DHT22;1059;52.548;13.408;2022-11-15T07:55:53;7.80;99.90
2106;DHT22;1059;52.548;13.408;2022-11-15T07:58:20;7.80;99.90
2106;DHT22;1059;52.548;13.408;2022-11-15T08:00:47;7.80;99.90
2106;DHT22;1059;52.548;13.408;2022-11-15T08:03:15;7.80;99.90
2106;DHT22;1059;52.548;13.408;2022-11-15T08:05:43;7.90;99.90
2106;DHT22;1059;52.548;13.408;2022-11-15T08:08:11;7.90;99.90
2106;DHT22;1059;52.548;13.408;2022-11-15T08:10:38;8.00;99.90
2106;DHT22;1059;52.548;13.408;2022-11-15T08:13:09;8.00;99.90
2106;DHT22;1059;52.548;13.408;2022-11-15T08:15:36;8.10;99.90
2106;DHT22;1059;52.548;13.408;2022-11-15T08:18:08;8.20;99.90
2106;DHT22;1059;52.548;13.408;2022-11-15T08:20:36;8.20;99.90
2106;DHT22;1059;52.548;13.408;2022-11-15T08:23:04;8.30;99.90
2106;DHT22;1059;52.548;13.408;2022-11-15T08:25:32;8.30;99.90
2106;DHT22;1059;52.548;13.408;2022-11-15T08:28:01;8.40;99.90
2106;DHT22;1059;52.548;13.408;2022-11-15T08:30:30;8.50;99.90
2106;DHT22;1059;52.548;13.408;2022-11-15T08:32:58;8.60;99.90
2106;DHT22;1059;52.548;13.408;2022-11-15T08:35:25;8.60;99.90
2106;DHT22;1059;52.548;13.408;2022-11-15T08:37:53;8.60;99.90
2106;DHT22;1059;52.548;13.408;2022-11-15T08:40:20;8.60;99.90
2106;DHT22;1059;52.548;13.408;2022-11-15T08:42:48;8.60;99.90
2106;DHT22;1059;52.548;13.408;2022-11-15T08:45:15;8.70;99.90
2106;DHT22;1059;52.548;13.408;2022-11-15T08:47:43;8.80;99.90
2106;DHT22;1059;52.548;13.408;2022-11-15T08:50:10;8.90;99.90
2106;DHT22;1059;52.548;13.408;2022-11-15T08:52:37;9.00;99.90
2106;DHT22;1059;52.548;13.408;2022-11-15T08:55:05;9.00;99.90
2106;DHT22;1059;52.548;13.408;2022-11-15T08:57:33;9.10;99.90
2106;DHT22;1059;52.548;13.408;2022-11-15T09:00:00;9.10;99.90
2106;DHT22;1059;52.548;13.408;2022-11-15T09:02:27;9.20;99.90
2106;DHT22;1059;52.548;13.408;2022-11-15T09:04:55;9.20;99.90
2106;DHT22;1059;52.548;13.408;2022-11-15T09:07:22;9.20;99.90
2106;DHT22;1059;52.548;13.408;2022-11-15T09:09:49;9.20;99.90
2106;DHT22;1059;52.548;13.408;2022-11-15T09:12:16;9.20;99.90
2106;DHT22;1059;52.548;13.408;2022-11-15T09:14:43;9.30;99.90
2106;DHT22;1059;52.548;13.408;2022-11-15T09:17:10;9.30;99.90
2106;DHT22;1059;52.548;13.408;2022-11-15T09:19:37;9.40;99.90
2106;DHT22;1059;52.548;13.408;2022-11-15T09:22:07;9.40;99.90
2106;DHT22;1059;52.548;13.408;2022-11-15T09:24:34;9.40;99.90
2106;DHT22;1059;52.548;13.408;2022-11-15T09:27:01;9.40;99.90
2106;DHT22;1059;52.548;13.408;2022-11-15T09:29:28;9.50;99.90
2106;DHT22;1059;52.548;13.408;2022-11-15T09:31:55;9.60;99.90
2106;DHT22;1059;52.548;13.408;2022-11-15T09:34:22;9.60;99.90
2106;DHT22;1059;52.548;13.408;2022-11-15T09:36:49;9.70;99.90
2106;DHT22;1059;52.548;13.408;2022-11-15T09:39:17;9.80;99.90
2106;DHT22;1059;52.548;13.408;2022-11-15T09:42:03;9.90;99.90
2106;DHT22;1059;52.548;13.408;2022-11-15T09:44:54;10.00;99.90
2106;DHT22;1059;52.548;13.408;2022-11-15T09:47:48;10.10;99.90
2106;DHT22;1059;52.548;13.408;2022-11-15T09:50:28;10.20;99.90
2106;DHT22;1059;52.548;13.408;2022-11-15T09:52:57;10.20;99.90
2106;DHT22;1059;52.548;13.408;2022-11-15T09:55:39;10.30;99.90
2106;DHT22;1059;52.548;13.408;2022-11-15T09:58:15;10.40;99.90
2106;DHT22;1059;52.548;13.408;2022-11-15T10:00:45;10.50;99.90
2106;DHT22;1059;52.548;13.408;2022-11-15T10:03:16;10.60;99.90
2106;DHT22;1059;52.548;13.408;2022-11-15T10:05:45;10.70;99.90
2106;DHT22;1059;52.548;13.408;2022-11-15T10:08:26;10.70;99.90
2106;DHT22;1059;52.548;13.408;2022-11-15T10:10:58;10.70;99.90
2106;DHT22;1059;52.548;13.408;2022-11-15T10:13:26;10.80;99.90
2106;DHT22;1059;52.548;13.408;2022-11-15T10:16:04;10.80;99.90
2106;DHT22;1059;52.548;13.408;2022-11-15T10:18:35;10.90;99.90
2106;DHT22;1059;52.548;13.408;2022-11-15T10:21:12;11.00;99.90
2106;DHT22;1059;52.548;13.408;2022-11-15T10:23:42;11.10;99.90
2106;DHT22;1059;52.548;13.408;2022-11-15T10:26:13;11.20;99.90
2106;DHT22;1059;52.548;13.408;2022-11-15T10:28:41;11.20;99.90
2106;DHT22;1059;52.548;13.408;2022-11-15T10:31:22;11.30;99.90
2106;DHT22;1059;52.548;13.408;2022-11-15T10:33:51;11.40;99.90
2106;DHT22;1059;52.548;13.408;2022-11-15T10:36:24;11.50;99.90
2106;DHT22;1059;52.548;13.408;2022-11-15T10:38:53;11.60;99.90
2106;DHT22;1059;52.548;13.408;2022-11-15T10:41:29;11.70;99.90
2106;DHT22;1059;52.548;13.408;2022-11-15T10:44:21;11.90;99.90
2106;DHT22;1059;52.548;13.408;2022-11-15T10:47:04;12.00;99.90
2106;DHT22;1059;52.548;13.408;2022-11-15T10:49:32;12.10;99.90
2106;DHT22;1059;52.548;13.408;2022-11-15T10:52:02;12.20;99.90
2106;DHT22;1059;52.548;13.408;2022-11-15T10:54:37;12.30;99.90
2106;DHT22;1059;52.548;13.408;2022-11-15T10:57:11;12.40;99.90
2106;DHT22;1059;52.548;13.408;2022-11-15T10:59:39;12.40;99.90
2106;DHT22;1059;52.548;13.408;2022-11-15T11:02:27;12.60;99.90
2106;DHT22;1059;52.548;13.408;2022-11-15T11:04:54;12.70;99.90
2106;DHT22;1059;52.548;13.408;2022-11-15T11:07:23;12.70;99.90
2106;DHT22;1059;52.548;13.408;2022-11-15T11:09:58;12.80;99.90
2106;DHT22;1059;52.548;13.408;2022-11-15T11:12:32;12.90;99.90
2106;DHT22;1059;52.548;13.408;2022-11-15T11:15:01;13.10;99.90
2106;DHT22;1059;52.548;13.408;2022-11-15T11:17:38;13.10;99.90
2106;DHT22;1059;52.548;13.408;2022-11-15T11:20:18;13.10;99.90
2106;DHT22;1059;52.548;13.408;2022-11-15T11:22:57;13.20;99.90
2106;DHT22;1059;52.548;13.408;2022-11-15T11:25:33;13.20;99.90
2106;DHT22;1059;52.548;13.408;2022-11-15T11:28:16;13.20;99.90
2106;DHT22;1059;52.548;13.408;2022-11-15T11:30:54;13.30;99.90
2106;DHT22;1059;52.548;13.408;2022-11-15T11:33:29;13.40;99.90
2106;DHT22;1059;52.548;13.408;2022-11-15T11:36:05;13.50;99.90
2106;DHT22;1059;52.548;13.408;2022-11-15T11:38:51;13.60;99.90
2106;DHT22;1059;52.548;13.408;2022-11-15T11:41:46;13.80;99.90
2106;DHT22;1059;52.548;13.408;2022-11-15T11:44:41;14.00;99.90
2106;DHT22;1059;52.548;13.408;2022-11-15T11:47:11;14.10;99.90
2106;DHT22;1059;52.548;13.408;2022-11-15T11:49:43;14.20;99.90
2106;DHT22;1059;52.548;13.408;2022-11-15T11:52:16;14.60;99.90
2106;DHT22;1059;52.548;13.408;2022-11-15T11:54:52;15.40;99.90
2106;DHT22;1059;52.548;13.408;2022-11-15T11:57:29;16.50;99.90
2106;DHT22;1059;52.548;13.408;2022-11-15T12:00:03;17.70;99.90
2106;DHT22;1059;52.548;13.408;2022-11-15T12:02:34;19.20;99.90
2106;DHT22;1059;52.548;13.408;2022-11-15T12:05:09;20.60;99.90
2106;DHT22;1059;52.548;13.408;2022-11-15T12:07:38;21.40;99.90
2106;DHT22;1059;52.548;13.408;2022-11-15T12:10:15;22.00;99.90
2106;DHT22;1059;52.548;13.408;2022-11-15T12:12:49;22.50;99.90
2106;DHT22;1059;52.548;13.408;2022-11-15T12:15:20;23.40;99.90
2106;DHT22;1059;52.548;13.408;2022-11-15T12:17:48;24.20;95.80
2106;DHT22;1059;52.548;13.408;2022-11-15T12:20:18;24.30;91.90
2106;DHT22;1059;52.548;13.408;2022-11-15T12:22:52;24.60;88.70
2106;DHT22;1059;52.548;13.408;2022-11-15T12:25:24;24.30;81.90
2106;DHT22;1059;52.548;13.408;2022-11-15T12:27:56;24.10;84.70
2106;DHT22;1059;52.548;13.408;2022-11-15T12:30:27;24.30;1.00
2106;DHT22;1059;52.548;13.408;2022-11-15T12:32:58;24.40;1.00
2106;DHT22;1059;52.548;13.408;2022-11-15T12:35:30;24.50;1.00
2106;DHT22;1059;52.548;13.408;2022-11-15T12:37:59;24.80;1.00
2106;DHT22;1059;52.548;13.408;2022-11-15T12:40:34;25.20;1.00
2106;DHT22;1059;52.548;13.408;2022-11-15T12:45:53;25.20;1.00
2106;DHT22;1059;52.548;13.408;2022-11-15T12:48:46;25.20;1.00
2106;DHT22;1059;52.548;13.408;2022-11-15T12:51:13;25.20;1.00
2106;DHT22;1059;52.548;13.408;2022-11-15T12:53:40;25.20;1.00
2106;DHT22;1059;52.548;13.408;2022-11-15T12:56:21;25.60;1.00
2106;DHT22;1059;52.548;13.408;2022-11-15T12:58:51;25.90;1.00
2106;DHT22;1059;52.548;13.408;2022-11-15T13:04:27;26.40;1.00
2106;DHT22;1059;52.548;13.408;2022-11-15T13:06:56;26.40;1.00
2106;DHT22;1059;52.548;13.408;2022-11-15T13:09:52;26.20;1.00
2106;DHT22;1059;52.548;13.408;2022-11-15T13:12:48;26.10;1.00
2106;DHT22;1059;52.548;13.408;2022-11-15T13:15:31;26.20;1.00
2106;DHT22;1059;52.548;13.408;2022-11-15T13:18:33;26.10;1.00
2106;DHT22;1059;52.548;13.408;2022-11-15T13:21:03;26.20;1.00
2106;DHT22;1059;52.548;13.408;2022-11-15T13:23:54;26.00;1.00
2106;DHT22;1059;52.548;13.408;2022-11-15T13:26:21;25.60;1.00
2106;DHT22;1059;52.548;13.408;2022-11-15T13:28:50;25.50;1.00
2106;DHT22;1059;52.548;13.408;2022-11-15T13:31:26;25.30;1.00
2106;DHT22;1059;52.548;13.408;2022-11-15T13:33:57;25.10;1.00
2106;DHT22;1059;52.548;13.408;2022-11-15T13:36:28;24.90;1.00
2106;DHT22;1059;52.548;13.408;2022-11-15T13:38:57;24.70;1.00
2106;DHT22;1059;52.548;13.408;2022-11-15T13:41:28;24.70;1.00
2106;DHT22;1059;52.548;13.408;2022-11-15T13:43:56;24.50;1.00
2106;DHT22;1059;52.548;13.408;2022-11-15T13:46:24;24.30;1.00
2106;DHT22;1059;52.548;13.408;2022-11-15T13:48:53;24.00;1.00
2106;DHT22;1059;52.548;13.408;2022-11-15T13:51:32;23.50;1.00
2106;DHT22;1059;52.548;13.408;2022-11-15T13:54:03;23.20;1.00
2106;DHT22;1059;52.548;13.408;2022-11-15T13:56:34;23.00;1.00
2106;DHT22;1059;52.548;13.408;2022-11-15T13:59:09;22.80;1.00
2106;DHT22;1059;52.548;13.408;2022-11-15T14:01:36;22.70;1.00
2106;DHT22;1059;52.548;13.408;2022-11-15T14:04:04;22.60;1.00
2106;DHT22;1059;52.548;13.408;2022-11-15T14:06:32;22.70;1.00
2106;DHT22;1059;52.548;13.408;2022-11-15T14:09:15;22.70;1.00
2106;DHT22;1059;52.548;13.408;2022-11-15T14:11:50;22.50;1.00
2106;DHT22;1059;52.548;13.408;2022-11-15T14:14:20;22.00;1.00
2106;DHT22;1059;52.548;13.408;2022-11-15T14:16:49;21.70;1.00
2106;DHT22;1059;52.548;13.408;2022-11-15T14:19:35;21.40;1.00
2106;DHT22;1059;52.548;13.408;2022-11-15T14:22:17;21.20;1.00
2106;DHT22;1059;52.548;13.408;2022-11-15T14:24:47;21.10;1.00
2106;DHT22;1059;52.548;13.408;2022-11-15T14:27:31;21.00;1.00
2106;DHT22;1059;52.548;13.408;2022-11-15T14:29:58;20.90;1.00
2106;DHT22;1059;52.548;13.408;2022-11-15T14:32:27;20.80;1.00
2106;DHT22;1059;52.548;13.408;2022-11-15T14:34:56;20.60;1.00
2106;DHT22;1059;52.548;13.408;2022-11-15T14:37:26;20.40;1.00
2106;DHT22;1059;52.548;13.408;2022-11-15T14:39:53;20.20;1.00
2106;DHT22;1059;52.548;13.408;2022-11-15T14:42:21;19.80;1.00
2106;DHT22;1059;52.548;13.408;2022-11-15T14:44:49;19.30;1.00
2106;DHT22;1059;52.548;13.408;2022-11-15T14:47:16;18.80;1.00
2106;DHT22;1059;52.548;13.408;2022-11-15T14:49:44;18.20;1.00
2106;DHT22;1059;52.548;13.408;2022-11-15T14:52:26;17.70;1.00
2106;DHT22;1059;52.548;13.408;2022-11-15T14:54:53;17.20;1.00
2106;DHT22;1059;52.548;13.408;2022-11-15T14:57:20;16.80;1.00
2106;DHT22;1059;52.548;13.408;2022-11-15T14:59:47;16.50;1.00
2106;DHT22;1059;52.548;13.408;2022-11-15T15:02:17;16.20;1.00
2106;DHT22;1059;52.548;13.408;2022-11-15T15:04:44;15.90;75.60
2106;DHT22;1059;52.548;13.408;2022-11-15T15:07:11;15.60;99.90
2106;DHT22;1059;52.548;13.408;2022-11-15T15:09:40;15.30;99.90
2106;DHT22;1059;52.548;13.408;2022-11-15T15:12:14;15.10;99.90
2106;DHT22;1059;52.548;13.408;2022-11-15T15:14:42;14.90;99.90
2106;DHT22;1059;52.548;13.408;2022-11-15T15:17:09;14.60;99.90
2106;DHT22;1059;52.548;13.408;2022-11-15T15:19:35;14.40;99.90
2106;DHT22;1059;52.548;13.408;2022-11-15T15:22:02;14.30;99.90
2106;DHT22;1059;52.548;13.408;2022-11-15T15:24:29;14.10;99.90
2106;DHT22;1059;52.548;13.408;2022-11-15T15:26:58;14.00;99.90
2106;DHT22;1059;52.548;13.408;2022-11-15T15:29:24;13.90;99.90
2106;DHT22;1059;52.548;13.408;2022-11-15T15:31:51;13.70;99.90
2106;DHT22;1059;52.548;13.408;2022-11-15T15:34:18;13.60;99.90
2106;DHT22;1059;52.548;13.408;2022-11-15T15:36:45;13.50;99.90
2106;DHT22;1059;52.548;13.408;2022-11-15T15:39:12;13.40;99.90
2106;DHT22;1059;52.548;13.408;2022-11-15T15:41:39;13.30;99.90
2106;DHT22;1059;52.548;13.408;2022-11-15T15:44:07;13.20;99.90
2106;DHT22;1059;52.548;13.408;2022-11-15T15:46:34;13.10;99.90
2106;DHT22;1059;52.548;13.408;2022-11-15T15:49:01;13.10;99.90
2106;DHT22;1059;52.548;13.408;2022-11-15T15:51:29;13.00;99.90
2106;DHT22;1059;52.548;13.408;2022-11-15T15:53:55;12.90;99.90
2106;DHT22;1059;52.548;13.408;2022-11-15T15:56:23;12.80;99.90
2106;DHT22;1059;52.548;13.408;2022-11-15T15:58:51;12.80;99.90
2106;DHT22;1059;52.548;13.408;2022-11-15T16:01:19;12.70;99.90
2106;DHT22;1059;52.548;13.408;2022-11-15T16:03:47;12.70;99.90
2106;DHT22;1059;52.548;13.408;2022-11-15T16:06:33;12.60;99.90
2106;DHT22;1059;52.548;13.408;2022-11-15T16:09:01;12.60;99.90
2106;DHT22;1059;52.548;13.408;2022-11-15T16:11:28;12.50;99.90
2106;DHT22;1059;52.548;13.408;2022-11-15T16:13:54;12.50;99.90
2106;DHT22;1059;52.548;13.408;2022-11-15T16:16:23;12.50;99.90
2106;DHT22;1059;52.548;13.408;2022-11-15T16:18:50;12.40;99.90
2106;DHT22;1059;52.548;13.408;2022-11-15T16:21:18;12.40;99.90
2106;DHT22;1059;52.548;13.408;2022-11-15T16:23:45;12.30;99.90
2106;DHT22;1059;52.548;13.408;2022-11-15T16:26:20;12.30;99.90
2106;DHT22;1059;52.548;13.408;2022-11-15T16:28:47;12.30;99.90